Terminal Aerodrome Forecast
Issued by NWS

Home | Current Version | Previous Version | Graphics & Text | Print | Product List | Glossary Off
Versions: 1 2 3 4 5 6 7 8 9 10 11 12 13 14 15 16 17 18 19 20 21 22 23 24 25 26 27 28 29 30 31 32 33 34 35 36 37

000
FTUS43 KDDC 191720
TAFHYS
TAF
KHYS 191720Z 1918/2018 35021G30KT P6SM VCSH OVC025
     FM192000 35020G30KT P6SM SCT025
     FM200200 35010KT P6SM SKC
     FM201400 33013KT P6SM OVC050=

USA.gov is the U.S. government's official web portal to all federal, state and local government web resources and services.